Time;durP1;ratioP1;P1;durP2;ratioP2;P2;SDS_P1;SDS_P2;PMS_P1;PMS_P2;Temp;Humidity;BMP_temperature;BMP_pressure;BME280_temperature;BME280_humidity;BME280_pressure;Samples;Min_cycle;Max_cycle;Signal;HPM_P1;HPM_P2
2024/02/26 00:00:20;;;;;;;2.33;1.50;;;;;;;;;;7412367;19;19919;-79
2024/02/26 00:03:05;;;;;;;2.15;1.20;;;;;;;;;;7410335;19;19907;-79
2024/02/26 00:05:56;;;;;;;4.85;1.60;;;;;;;;;;7404551;19;20563;-79
2024/02/26 00:08:43;;;;;;;1.50;1.02;;;;;;;;;;7408682;19;19918;-79
2024/02/26 00:11:32;;;;;;;2.80;1.20;;;;;;;;;;7411223;19;19944;-79
2024/02/26 00:14:16;;;;;;;2.60;1.20;;;;;;;;;;7410432;19;19923;-79
2024/02/26 00:17:03;;;;;;;5.60;1.23;;;;;;;;;;7409569;19;19930;-79
2024/02/26 00:19:49;;;;;;;2.75;1.25;;;;;;;;;;7411372;19;19922;-79
2024/02/26 00:22:39;;;;;;;2.63;1.70;;;;;;;;;;7405272;19;19929;-79
2024/02/26 00:25:23;;;;;;;2.42;1.45;;;;;;;;;;7408790;19;19931;-79
2024/02/26 00:28:09;;;;;;;2.55;1.27;;;;;;;;;;7411082;19;19915;-79
2024/02/26 00:30:56;;;;;;;5.40;1.52;;;;;;;;;;7409542;19;19922;-79
2024/02/26 00:33:41;;;;;;;2.33;1.30;;;;;;;;;;7412953;19;19978;-79
2024/02/26 00:36:30;;;;;;;2.35;1.23;;;;;;;;;;7410718;19;19914;-79
2024/02/26 00:39:17;;;;;;;2.60;1.30;;;;;;;;;;7411519;19;19922;-79
2024/02/26 00:42:03;;;;;;;2.17;1.48;;;;;;;;;;7410258;19;19919;-79
2024/02/26 00:44:47;;;;;;;2.50;1.10;;;;;;;;;;7410879;19;19928;-79
2024/02/26 00:47:34;;;;;;;3.75;1.10;;;;;;;;;;7410780;19;19911;-79
2024/02/26 00:50:18;;;;;;;1.85;1.33;;;;;;;;;;7409347;19;20229;-79
2024/02/26 00:53:08;;;;;;;1.98;1.10;;;;;;;;;;7414278;19;19914;-79
2024/02/26 00:56:00;;;;;;;2.22;1.17;;;;;;;;;;7415417;19;19947;-79
2024/02/26 00:58:44;;;;;;;2.72;1.55;;;;;;;;;;7414615;19;19907;-79
2024/02/26 01:01:33;;;;;;;1.67;1.00;;;;;;;;;;7412398;19;19907;-79
2024/02/26 01:04:20;;;;;;;5.03;1.38;;;;;;;;;;7414153;19;19927;-79
2024/02/26 01:07:06;;;;;;;2.13;1.00;;;;;;;;;;7415351;19;20617;-79
2024/02/26 01:09:53;;;;;;;2.35;1.17;;;;;;;;;;7413422;19;20384;-79
2024/02/26 01:12:40;;;;;;;2.53;1.63;;;;;;;;;;7414527;19;20369;-79
2024/02/26 01:15:26;;;;;;;2.58;1.02;;;;;;;;;;7414262;19;19974;-79
2024/02/26 01:18:10;;;;;;;1.90;1.17;;;;;;;;;;7413927;19;19934;-79
2024/02/26 01:20:55;;;;;;;4.55;1.17;;;;;;;;;;7412604;19;19921;-79
2024/02/26 01:23:42;;;;;;;3.10;1.40;;;;;;;;;;7415459;19;19922;-79
2024/02/26 01:26:31;;;;;;;4.22;1.40;;;;;;;;;;7413123;19;20252;-79
2024/02/26 01:29:18;;;;;;;2.33;1.27;;;;;;;;;;7415699;19;19907;-79
2024/02/26 01:32:04;;;;;;;2.28;1.27;;;;;;;;;;7413053;19;19938;-79
2024/02/26 01:34:50;;;;;;;2.00;1.33;;;;;;;;;;7413744;19;19926;-79
2024/02/26 01:37:37;;;;;;;4.00;1.40;;;;;;;;;;7410061;19;19918;-79
2024/02/26 01:40:29;;;;;;;2.05;1.35;;;;;;;;;;7414395;19;19922;-79
2024/02/26 01:43:16;;;;;;;3.60;1.60;;;;;;;;;;7413263;19;19923;-79
2024/02/26 01:46:08;;;;;;;2.85;1.30;;;;;;;;;;7413018;19;20600;-79
2024/02/26 01:48:53;;;;;;;2.08;1.20;;;;;;;;;;7413412;19;19914;-79
2024/02/26 01:51:38;;;;;;;2.58;1.30;;;;;;;;;;7413010;19;19922;-79
2024/02/26 01:54:25;;;;;;;2.70;1.13;;;;;;;;;;7413309;19;19929;-79
2024/02/26 01:57:11;;;;;;;2.72;1.40;;;;;;;;;;7412878;19;19914;-79
2024/02/26 01:59:55;;;;;;;2.55;1.20;;;;;;;;;;7412407;19;19982;-79
2024/02/26 02:02:44;;;;;;;5.43;3.03;;;;;;;;;;7410538;19;19915;-79
2024/02/26 02:05:28;;;;;;;3.50;1.80;;;;;;;;;;7412282;19;20389;-79
2024/02/26 02:08:16;;;;;;;3.65;1.77;;;;;;;;;;7412156;19;19922;-79
2024/02/26 02:11:05;;;;;;;3.25;1.70;;;;;;;;;;7414438;19;19918;-80
2024/02/26 02:13:50;;;;;;;2.80;1.15;;;;;;;;;;7410948;19;19922;-79
2024/02/26 02:16:34;;;;;;;2.67;1.30;;;;;;;;;;7412100;19;19927;-79
2024/02/26 02:19:21;;;;;;;4.03;1.27;;;;;;;;;;7414683;19;19918;-79
2024/02/26 02:22:10;;;;;;;2.03;1.05;;;;;;;;;;7411429;19;20341;-79
2024/02/26 02:24:57;;;;;;;1.35;1.00;;;;;;;;;;7412950;19;20329;-79
2024/02/26 02:27:42;;;;;;;3.03;1.50;;;;;;;;;;7412077;19;19947;-79
2024/02/26 02:30:33;;;;;;;2.75;1.33;;;;;;;;;;7413916;19;19922;-79
2024/02/26 02:33:18;;;;;;;1.50;1.13;;;;;;;;;;7413044;19;19918;-79
2024/02/26 02:36:02;;;;;;;2.42;1.33;;;;;;;;;;7408532;19;19996;-79
2024/02/26 02:38:54;;;;;;;1.67;0.98;;;;;;;;;;7411658;19;19915;-79
2024/02/26 02:41:43;;;;;;;1.55;0.90;;;;;;;;;;7412402;19;20374;-79
2024/02/26 02:44:30;;;;;;;1.85;1.20;;;;;;;;;;7412005;19;19914;-79
2024/02/26 02:47:17;;;;;;;1.60;1.30;;;;;;;;;;7415322;19;19974;-79
2024/02/26 02:50:01;;;;;;;1.15;0.90;;;;;;;;;;7419875;19;19922;-79
2024/02/26 02:52:49;;;;;;;2.55;1.10;;;;;;;;;;7416551;19;20357;-79
2024/02/26 02:55:36;;;;;;;5.68;1.30;;;;;;;;;;7417362;19;19915;-79
2024/02/26 02:58:21;;;;;;;1.90;1.13;;;;;;;;;;7414614;19;19910;-79
2024/02/26 03:01:07;;;;;;;2.25;1.00;;;;;;;;;;7420424;19;20293;-79
2024/02/26 03:03:53;;;;;;;2.00;1.30;;;;;;;;;;7420550;19;19910;-79
2024/02/26 03:06:38;;;;;;;3.63;1.05;;;;;;;;;;7408339;19;19919;-77
2024/02/26 03:09:25;;;;;;;2.40;1.20;;;;;;;;;;7411527;19;19911;-77
2024/02/26 03:12:12;;;;;;;1.38;0.88;;;;;;;;;;7409941;19;20337;-77
2024/02/26 03:14:56;;;;;;;2.10;1.42;;;;;;;;;;7411156;19;19929;-77
2024/02/26 03:17:43;;;;;;;1.73;1.02;;;;;;;;;;7406822;19;19910;-77
2024/02/26 03:20:27;;;;;;;2.10;1.08;;;;;;;;;;7411067;19;19918;-77
2024/02/26 03:23:16;;;;;;;1.55;1.20;;;;;;;;;;7408506;19;19919;-77
2024/02/26 03:26:01;;;;;;;1.58;1.15;;;;;;;;;;7408746;19;19918;-77
2024/02/26 03:28:47;;;;;;;1.90;1.20;;;;;;;;;;7409562;19;19918;-77
2024/02/26 03:31:32;;;;;;;4.50;1.05;;;;;;;;;;7407771;19;20253;-77
2024/02/26 03:34:19;;;;;;;2.58;1.23;;;;;;;;;;7410677;19;19915;-77
2024/02/26 03:37:07;;;;;;;1.95;1.27;;;;;;;;;;7406202;19;20325;-77
2024/02/26 03:39:53;;;;;;;2.13;1.23;;;;;;;;;;7409075;19;19919;-77
2024/02/26 03:42:40;;;;;;;1.95;1.05;;;;;;;;;;7406460;19;19914;-77
2024/02/26 03:45:29;;;;;;;1.33;1.13;;;;;;;;;;7409872;19;19914;-77
2024/02/26 03:48:20;;;;;;;2.85;1.35;;;;;;;;;;7418875;19;19915;-85
2024/02/26 03:51:11;;;;;;;2.60;1.50;;;;;;;;;;7424080;19;19910;-85
2024/02/26 03:53:57;;;;;;;1.65;0.98;;;;;;;;;;7423942;19;19933;-85
2024/02/26 03:56:44;;;;;;;1.60;1.10;;;;;;;;;;7421247;19;19918;-85
2024/02/26 03:59:28;;;;;;;1.40;1.05;;;;;;;;;;7424279;19;19931;-85
2024/02/26 04:02:19;;;;;;;2.70;1.13;;;;;;;;;;7422218;19;19923;-85
2024/02/26 04:05:08;;;;;;;2.55;1.38;;;;;;;;;;7421934;19;19930;-85
2024/02/26 04:07:59;;;;;;;2.28;1.15;;;;;;;;;;7420994;19;19942;-85
2024/02/26 04:10:43;;;;;;;2.17;1.10;;;;;;;;;;7421582;19;19939;-84
2024/02/26 04:13:30;;;;;;;1.95;1.38;;;;;;;;;;7429115;19;19910;-81
2024/02/26 04:16:19;;;;;;;1.77;1.23;;;;;;;;;;7431461;19;19907;-81
2024/02/26 04:19:08;;;;;;;4.85;1.20;;;;;;;;;;7427843;19;19925;-81
2024/02/26 04:21:53;;;;;;;2.67;1.30;;;;;;;;;;7428103;19;19943;-81
2024/02/26 04:24:42;;;;;;;3.10;1.67;;;;;;;;;;7430476;19;19930;-81
2024/02/26 04:27:27;;;;;;;1.60;1.30;;;;;;;;;;7429346;19;20268;-81
2024/02/26 04:30:12;;;;;;;2.00;1.20;;;;;;;;;;7430954;19;19926;-81
2024/02/26 04:33:01;;;;;;;1.77;1.20;;;;;;;;;;7427829;19;19925;-81
2024/02/26 04:35:48;;;;;;;2.92;1.42;;;;;;;;;;7428734;19;19914;-81
2024/02/26 04:38:34;;;;;;;2.38;1.08;;;;;;;;;;7427862;19;20019;-81
2024/02/26 04:41:18;;;;;;;1.73;1.10;;;;;;;;;;7427500;19;19918;-81
2024/02/26 04:44:05;;;;;;;3.40;1.58;;;;;;;;;;7427476;19;19926;-81
2024/02/26 04:46:52;;;;;;;3.50;1.83;;;;;;;;;;7427781;19;19917;-81
2024/02/26 04:49:36;;;;;;;2.17;1.60;;;;;;;;;;7428385;19;19926;-81
2024/02/26 04:52:25;;;;;;;2.80;1.52;;;;;;;;;;7427386;19;20938;-81
2024/02/26 04:55:10;;;;;;;1.90;1.10;;;;;;;;;;7427860;19;19918;-81
2024/02/26 04:57:57;;;;;;;2.38;1.23;;;;;;;;;;7426994;19;19915;-81
2024/02/26 05:00:41;;;;;;;2.90;1.17;;;;;;;;;;7428312;19;19918;-81
2024/02/26 05:03:30;;;;;;;2.03;1.10;;;;;;;;;;7427267;19;19932;-81
2024/02/26 05:06:17;;;;;;;4.55;1.27;;;;;;;;;;7428785;19;20403;-81
2024/02/26 05:09:06;;;;;;;1.88;1.17;;;;;;;;;;7427982;19;19911;-81
2024/02/26 05:11:53;;;;;;;1.65;1.10;;;;;;;;;;7427378;19;19911;-81
2024/02/26 05:14:39;;;;;;;2.25;1.38;;;;;;;;;;7427513;19;20273;-81
2024/02/26 05:17:26;;;;;;;1.75;1.15;;;;;;;;;;7428378;19;19918;-80
2024/02/26 05:20:13;;;;;;;3.17;1.20;;;;;;;;;;7425773;19;19918;-80
2024/02/26 05:23:03;;;;;;;3.03;1.60;;;;;;;;;;7423155;19;19925;-80
2024/02/26 05:25:54;;;;;;;2.35;1.42;;;;;;;;;;7425588;19;19982;-80
2024/02/26 05:28:39;;;;;;;2.75;1.52;;;;;;;;;;7425946;19;19943;-80
2024/02/26 05:31:26;;;;;;;4.60;1.70;;;;;;;;;;7423413;19;19914;-80
2024/02/26 05:34:13;;;;;;;1.25;1.00;;;;;;;;;;7423145;19;19914;-80
2024/02/26 05:37:02;;;;;;;3.40;1.50;;;;;;;;;;7421932;19;20417;-80
2024/02/26 05:39:49;;;;;;;2.58;1.48;;;;;;;;;;7422626;19;19922;-80
2024/02/26 05:42:38;;;;;;;1.77;1.23;;;;;;;;;;7423520;19;19918;-80
2024/02/26 05:45:22;;;;;;;1.42;1.23;;;;;;;;;;7422051;19;19966;-80
2024/02/26 05:48:07;;;;;;;3.00;1.50;;;;;;;;;;7419782;19;19929;-80
2024/02/26 05:50:52;;;;;;;2.85;1.50;;;;;;;;;;7421783;19;19919;-80
2024/02/26 05:53:36;;;;;;;2.72;1.55;;;;;;;;;;7421313;19;20306;-80
2024/02/26 05:56:23;;;;;;;2.63;1.40;;;;;;;;;;7422383;19;19919;-81
2024/02/26 05:59:10;;;;;;;2.47;1.73;;;;;;;;;;7420967;19;19907;-81
2024/02/26 06:01:56;;;;;;;3.47;1.33;;;;;;;;;;7421646;19;19922;-81
2024/02/26 06:04:41;;;;;;;3.47;1.52;;;;;;;;;;7419750;19;19915;-81
2024/02/26 06:07:28;;;;;;;4.47;1.80;;;;;;;;;;7420603;19;20012;-81
2024/02/26 06:10:21;;;;;;;2.80;1.20;;;;;;;;;;7422124;19;20114;-80
2024/02/26 06:13:10;;;;;;;4.65;2.95;;;;;;;;;;7420639;19;19917;-80
2024/02/26 06:15:59;;;;;;;3.58;2.00;;;;;;;;;;7419659;19;19914;-80
2024/02/26 06:18:44;;;;;;;4.35;1.90;;;;;;;;;;7421351;19;19946;-80
2024/02/26 06:21:30;;;;;;;2.55;1.98;;;;;;;;;;7424794;19;19919;-80
2024/02/26 06:24:14;;;;;;;2.17;1.35;;;;;;;;;;7426499;19;20363;-80
2024/02/26 06:26:59;;;;;;;2.55;1.67;;;;;;;;;;7426279;19;19914;-80
2024/02/26 06:29:43;;;;;;;5.45;2.10;;;;;;;;;;7428128;19;19915;-80
2024/02/26 06:32:36;;;;;;;2.10;1.67;;;;;;;;;;7424669;19;19919;-80
2024/02/26 06:35:25;;;;;;;3.13;1.98;;;;;;;;;;7428330;19;19918;-80
2024/02/26 06:38:11;;;;;;;2.88;1.90;;;;;;;;;;7427494;19;19978;-80
2024/02/26 06:40:58;;;;;;;4.68;2.25;;;;;;;;;;7429056;19;19921;-80
2024/02/26 06:43:45;;;;;;;2.90;2.10;;;;;;;;;;7428955;19;19911;-80
2024/02/26 06:46:31;;;;;;;5.43;2.40;;;;;;;;;;7426731;19;20682;-80
2024/02/26 06:49:21;;;;;;;3.70;2.20;;;;;;;;;;7428450;19;19922;-80
2024/02/26 06:52:08;;;;;;;3.63;2.53;;;;;;;;;;7426925;19;19941;-81
2024/02/26 06:54:55;;;;;;;2.88;2.20;;;;;;;;;;7427945;19;19914;-80
2024/02/26 06:57:42;;;;;;;6.38;2.30;;;;;;;;;;7426909;19;19921;-80
2024/02/26 07:00:26;;;;;;;3.15;2.33;;;;;;;;;;7429824;19;19951;-80
2024/02/26 07:03:13;;;;;;;5.85;2.13;;;;;;;;;;7427321;19;19930;-80
2024/02/26 07:06:02;;;;;;;4.22;2.20;;;;;;;;;;7427139;19;19950;-80
2024/02/26 07:08:51;;;;;;;2.63;1.92;;;;;;;;;;7431889;19;19911;-81
2024/02/26 07:11:39;;;;;;;3.58;2.00;;;;;;;;;;7425579;19;20268;-81
2024/02/26 07:14:24;;;;;;;3.22;1.98;;;;;;;;;;7420254;19;19925;-80
2024/02/26 07:17:10;;;;;;;3.83;1.95;;;;;;;;;;7427339;19;20302;-80
2024/02/26 07:19:56;;;;;;;5.65;1.90;;;;;;;;;;7429454;19;19939;-80
2024/02/26 07:22:45;;;;;;;3.45;1.88;;;;;;;;;;7427214;19;19918;-80
2024/02/26 07:25:29;;;;;;;2.20;1.55;;;;;;;;;;7427569;19;19947;-80
2024/02/26 07:28:16;;;;;;;3.40;1.83;;;;;;;;;;7429483;19;19923;-80
2024/02/26 07:31:03;;;;;;;2.72;1.60;;;;;;;;;;7426121;19;19958;-80
2024/02/26 07:33:48;;;;;;;4.28;1.50;;;;;;;;;;7428828;19;19915;-80
2024/02/26 07:36:37;;;;;;;3.80;2.20;;;;;;;;;;7427706;19;19911;-80
2024/02/26 07:39:29;;;;;;;2.55;1.70;;;;;;;;;;7428502;19;19947;-80
2024/02/26 07:42:13;;;;;;;5.13;1.90;;;;;;;;;;7425386;19;19966;-80
2024/02/26 07:45:00;;;;;;;3.17;1.58;;;;;;;;;;7423248;19;19911;-80
2024/02/26 07:47:45;;;;;;;2.42;1.60;;;;;;;;;;7424958;19;19947;-81
2024/02/26 07:50:29;;;;;;;3.80;1.45;;;;;;;;;;7426060;19;20321;-80
2024/02/26 07:53:16;;;;;;;2.15;1.55;;;;;;;;;;7426097;19;20317;-80
2024/02/26 07:56:03;;;;;;;5.78;1.83;;;;;;;;;;7417732;19;19922;-81
2024/02/26 07:58:52;;;;;;;2.80;1.70;;;;;;;;;;7420520;19;19921;-80
2024/02/26 08:01:39;;;;;;;3.25;1.90;;;;;;;;;;7423115;19;19923;-80
2024/02/26 08:04:23;;;;;;;1.65;1.17;;;;;;;;;;7421554;19;19923;-80
2024/02/26 08:07:08;;;;;;;3.05;1.75;;;;;;;;;;7428406;19;19918;-80
2024/02/26 08:09:55;;;;;;;4.10;1.55;;;;;;;;;;7425135;19;20001;-80
2024/02/26 08:12:42;;;;;;;3.67;1.67;;;;;;;;;;7425494;19;19914;-81
2024/02/26 08:15:28;;;;;;;3.80;1.25;;;;;;;;;;7421708;19;19921;-81
2024/02/26 08:18:17;;;;;;;2.65;1.30;;;;;;;;;;7425977;19;19938;-80
2024/02/26 08:21:02;;;;;;;2.50;1.38;;;;;;;;;;7412595;19;20392;-80
2024/02/26 08:23:49;;;;;;;3.42;1.40;;;;;;;;;;7414373;19;19915;-80
2024/02/26 08:26:36;;;;;;;2.08;1.08;;;;;;;;;;7415894;19;19925;-81
2024/02/26 08:29:27;;;;;;;3.63;1.40;;;;;;;;;;7407468;19;19945;-82
2024/02/26 08:32:14;;;;;;;2.17;1.40;;;;;;;;;;7411862;19;20005;-80
2024/02/26 08:35:03;;;;;;;1.95;1.15;;;;;;;;;;7420173;19;19919;-80
2024/02/26 08:37:47;;;;;;;2.00;1.45;;;;;;;;;;7424906;19;19997;-80
2024/02/26 08:40:32;;;;;;;3.03;1.10;;;;;;;;;;7421191;19;19929;-80
2024/02/26 08:43:19;;;;;;;1.98;1.20;;;;;;;;;;7422293;19;19918;-80
2024/02/26 08:46:06;;;;;;;2.75;1.73;;;;;;;;;;7422059;19;19999;-80
2024/02/26 08:48:52;;;;;;;3.90;1.75;;;;;;;;;;7422651;19;19914;-80
2024/02/26 08:51:36;;;;;;;2.90;1.70;;;;;;;;;;7422637;19;19947;-80
2024/02/26 08:54:25;;;;;;;2.80;1.52;;;;;;;;;;7420633;19;19951;-80
2024/02/26 08:57:14;;;;;;;3.15;1.60;;;;;;;;;;7420388;19;19925;-80
2024/02/26 09:00:00;;;;;;;2.78;1.67;;;;;;;;;;7423421;19;19942;-80
2024/02/26 09:02:51;;;;;;;2.78;1.77;;;;;;;;;;7420389;19;19914;-81
2024/02/26 09:05:38;;;;;;;3.28;1.70;;;;;;;;;;7420296;19;19915;-81
2024/02/26 09:08:25;;;;;;;4.00;1.98;;;;;;;;;;7416291;19;19945;-81
2024/02/26 09:11:10;;;;;;;3.00;1.90;;;;;;;;;;7421228;19;19921;-81
2024/02/26 09:13:56;;;;;;;2.50;1.70;;;;;;;;;;7419857;19;19919;-80
2024/02/26 09:16:45;;;;;;;3.90;1.88;;;;;;;;;;7422378;19;19917;-80
2024/02/26 09:19:37;;;;;;;5.18;2.30;;;;;;;;;;7423431;19;19929;-81
2024/02/26 09:22:22;;;;;;;4.63;2.03;;;;;;;;;;7426088;19;19914;-81
2024/02/26 09:25:10;;;;;;;4.45;2.30;;;;;;;;;;7422748;19;19943;-80
2024/02/26 09:27:56;;;;;;;6.13;2.10;;;;;;;;;;7423081;19;19930;-80
2024/02/26 09:30:41;;;;;;;4.95;2.38;;;;;;;;;;7429141;19;19922;-80
2024/02/26 09:33:25;;;;;;;4.03;2.17;;;;;;;;;;7427987;19;19914;-80
2024/02/26 09:36:12;;;;;;;3.47;2.00;;;;;;;;;;7427473;19;19943;-80
2024/02/26 09:38:58;;;;;;;3.60;1.70;;;;;;;;;;7425120;19;19918;-80
2024/02/26 09:41:43;;;;;;;4.55;2.28;;;;;;;;;;7435710;19;19919;-80
2024/02/26 09:44:30;;;;;;;3.92;1.95;;;;;;;;;;7435831;19;19922;-80
2024/02/26 09:47:19;;;;;;;3.50;1.83;;;;;;;;;;7265005;19;2947324;-80
2024/02/26 09:50:05;;;;;;;3.13;1.83;;;;;;;;;;7406438;19;20257;-80
2024/02/26 09:52:57;;;;;;;;;;;;;;;;;;7411448;19;20333;-80
2024/02/26 09:55:41;;;;;;;3.58;2.03;;;;;;;;;;7408032;19;19922;-80
2024/02/26 09:58:31;;;;;;;3.35;1.92;;;;;;;;;;7411217;19;20348;-80
2024/02/26 10:01:19;;;;;;;2.75;1.75;;;;;;;;;;7406249;19;19919;-80
2024/02/26 10:04:05;;;;;;;2.97;1.58;;;;;;;;;;7410804;19;19922;-81
2024/02/26 10:06:53;;;;;;;3.63;2.10;;;;;;;;;;7407684;19;19937;-80
2024/02/26 10:09:41;;;;;;;2.75;1.88;;;;;;;;;;7410849;19;19939;-80
2024/02/26 10:12:31;;;;;;;3.08;1.77;;;;;;;;;;7405710;19;20245;-80
2024/02/26 10:15:20;;;;;;;3.00;1.65;;;;;;;;;;7411982;19;19915;-80
2024/02/26 10:18:06;;;;;;;2.17;1.52;;;;;;;;;;7410569;19;19918;-80
2024/02/26 10:21:02;;;;;;;3.03;1.73;;;;;;;;;;7409356;19;19921;-80
2024/02/26 10:23:47;;;;;;;2.55;1.67;;;;;;;;;;7411465;19;19934;-80
2024/02/26 10:26:34;;;;;;;2.80;1.50;;;;;;;;;;7409373;19;19931;-80
2024/02/26 10:29:24;;;;;;;3.17;1.40;;;;;;;;;;7408302;19;20397;-80
2024/02/26 10:32:13;;;;;;;2.53;1.73;;;;;;;;;;7399764;19;19910;-80
2024/02/26 10:35:00;;;;;;;3.28;1.40;;;;;;;;;;7404860;19;20317;-80
2024/02/26 10:37:46;;;;;;;2.83;1.40;;;;;;;;;;7397907;19;19923;-80
2024/02/26 10:40:33;;;;;;;1.88;1.27;;;;;;;;;;7408710;19;19933;-80
2024/02/26 10:43:22;;;;;;;2.10;1.30;;;;;;;;;;7406146;19;19922;-80
2024/02/26 10:46:10;;;;;;;2.50;1.30;;;;;;;;;;7408495;19;19951;-80
2024/02/26 10:48:57;;;;;;;2.10;1.20;;;;;;;;;;7407333;19;19914;-80
2024/02/26 10:51:47;;;;;;;1.88;1.00;;;;;;;;;;7407924;19;19915;-80
2024/02/26 10:54:32;;;;;;;2.70;1.20;;;;;;;;;;7408173;19;19944;-80
2024/02/26 10:57:21;;;;;;;1.48;1.00;;;;;;;;;;7406271;19;19922;-80
2024/02/26 11:00:12;;;;;;;1.67;1.20;;;;;;;;;;7410373;19;20388;-80
2024/02/26 11:03:02;;;;;;;1.38;0.90;;;;;;;;;;7408280;19;19989;-80
2024/02/26 11:05:51;;;;;;;3.85;1.25;;;;;;;;;;7403469;19;19910;-79
2024/02/26 11:08:39;;;;;;;5.35;2.10;;;;;;;;;;7414564;19;19934;-80
2024/02/26 11:11:27;;;;;;;4.72;1.20;;;;;;;;;;7408058;19;19914;-80
2024/02/26 11:14:13;;;;;;;1.95;1.10;;;;;;;;;;7405131;19;20296;-80
2024/02/26 11:17:05;;;;;;;1.90;1.13;;;;;;;;;;7412046;19;19914;-80
2024/02/26 11:19:53;;;;;;;0.88;0.63;;;;;;;;;;7415719;19;19910;-80
2024/02/26 11:22:41;;;;;;;1.63;0.90;;;;;;;;;;7415633;19;19922;-81
2024/02/26 11:25:27;;;;;;;1.35;0.85;;;;;;;;;;7407683;19;19922;-81
2024/02/26 11:28:15;;;;;;;1.42;1.00;;;;;;;;;;7412999;19;19926;-80
2024/02/26 11:31:01;;;;;;;1.90;1.20;;;;;;;;;;7415978;19;19923;-80
2024/02/26 11:33:52;;;;;;;1.55;0.70;;;;;;;;;;7414329;19;19918;-80
2024/02/26 11:36:40;;;;;;;1.30;0.70;;;;;;;;;;7411168;19;19922;-80
2024/02/26 11:39:25;;;;;;;1.45;0.98;;;;;;;;;;7414597;19;19921;-79
2024/02/26 11:42:12;;;;;;;1.83;0.90;;;;;;;;;;7405289;19;19917;-79
2024/02/26 11:45:00;;;;;;;1.10;0.70;;;;;;;;;;7405597;19;19927;-80
2024/02/26 11:47:44;;;;;;;1.63;0.80;;;;;;;;;;7407226;19;19934;-80
2024/02/26 11:50:42;;;;;;;1.80;0.80;;;;;;;;;;7411724;19;19919;-80
2024/02/26 11:53:28;;;;;;;1.38;0.68;;;;;;;;;;7408043;19;19915;-81
2024/02/26 11:56:19;;;;;;;1.38;0.80;;;;;;;;;;7409971;19;20597;-80
2024/02/26 11:59:06;;;;;;;1.38;0.90;;;;;;;;;;7413240;19;20337;-81
2024/02/26 12:01:53;;;;;;;0.90;0.60;;;;;;;;;;7414443;19;19922;-81
2024/02/26 12:04:39;;;;;;;1.58;1.00;;;;;;;;;;7412092;19;19922;-80
2024/02/26 12:07:26;;;;;;;0.93;0.80;;;;;;;;;;7409075;19;19927;-80
2024/02/26 12:10:27;;;;;;;1.55;0.75;;;;;;;;;;7416854;19;19933;-79
2024/02/26 12:13:14;;;;;;;3.80;0.75;;;;;;;;;;7411746;19;20201;-80
2024/02/26 12:16:01;;;;;;;0.98;0.80;;;;;;;;;;7412548;19;20010;-80
2024/02/26 12:18:47;;;;;;;1.13;0.80;;;;;;;;;;7406636;19;19918;-80
2024/02/26 12:21:32;;;;;;;0.90;0.63;;;;;;;;;;7411283;19;19915;-80
2024/02/26 12:24:21;;;;;;;2.50;0.60;;;;;;;;;;7412165;19;19914;-80
2024/02/26 12:27:07;;;;;;;0.60;0.50;;;;;;;;;;7411971;19;20380;-80
2024/02/26 12:29:52;;;;;;;2.08;0.60;;;;;;;;;;7414482;19;19929;-80
2024/02/26 12:32:37;;;;;;;1.73;0.50;;;;;;;;;;7406472;19;19921;-79
2024/02/26 12:35:21;;;;;;;1.00;0.68;;;;;;;;;;7413685;19;20381;-79
2024/02/26 12:38:09;;;;;;;2.70;0.82;;;;;;;;;;7411891;19;19915;-81
2024/02/26 12:40:56;;;;;;;0.93;0.45;;;;;;;;;;7411480;19;19990;-81
2024/02/26 12:43:40;;;;;;;1.95;0.80;;;;;;;;;;7412592;19;20580;-79
2024/02/26 12:46:24;;;;;;;1.20;0.70;;;;;;;;;;7407791;19;19936;-79
2024/02/26 12:49:18;;;;;;;1.15;0.68;;;;;;;;;;7412838;19;19941;-80
2024/02/26 12:52:08;;;;;;;1.20;0.60;;;;;;;;;;7411082;19;19926;-80
2024/02/26 12:55:03;;;;;;;1.02;0.70;;;;;;;;;;7409504;19;19951;-80
2024/02/26 12:57:54;;;;;;;1.42;0.80;;;;;;;;;;7408749;19;19915;-80
2024/02/26 13:00:39;;;;;;;1.10;0.70;;;;;;;;;;7410286;19;19922;-79
2024/02/26 13:03:24;;;;;;;1.02;0.68;;;;;;;;;;7412274;19;19923;-79
2024/02/26 13:06:11;;;;;;;1.42;0.75;;;;;;;;;;7410240;19;19935;-79
2024/02/26 13:09:01;;;;;;;1.40;0.80;;;;;;;;;;7411709;19;20325;-79
2024/02/26 13:11:49;;;;;;;1.00;0.60;;;;;;;;;;7409440;19;20397;-79
2024/02/26 13:14:40;;;;;;;0.82;0.55;;;;;;;;;;7413278;19;20381;-79
2024/02/26 13:17:27;;;;;;;1.10;0.60;;;;;;;;;;7411099;19;19986;-80
2024/02/26 13:20:14;;;;;;;0.70;0.45;;;;;;;;;;7414023;19;19922;-79
2024/02/26 13:23:05;;;;;;;0.90;0.47;;;;;;;;;;7411688;19;19911;-80
2024/02/26 13:25:59;;;;;;;1.67;0.60;;;;;;;;;;7410880;19;19951;-80
2024/02/26 13:28:45;;;;;;;1.02;0.70;;;;;;;;;;7411769;19;19947;-80
2024/02/26 13:31:41;;;;;;;0.65;0.50;;;;;;;;;;7408411;19;19926;-79
2024/02/26 13:34:30;;;;;;;2.63;0.60;;;;;;;;;;7407747;19;19922;-80
2024/02/26 13:37:17;;;;;;;0.95;0.60;;;;;;;;;;7406919;19;20329;-80
2024/02/26 13:40:08;;;;;;;1.50;0.60;;;;;;;;;;7407645;19;20404;-79
2024/02/26 13:42:52;;;;;;;0.50;0.40;;;;;;;;;;7406690;19;19930;-79
2024/02/26 13:45:38;;;;;;;0.70;0.45;;;;;;;;;;7406837;19;19926;-79
2024/02/26 13:48:27;;;;;;;1.20;0.50;;;;;;;;;;7407206;19;20312;-79
2024/02/26 13:51:11;;;;;;;1.63;0.55;;;;;;;;;;7410887;19;19921;-79
2024/02/26 13:53:56;;;;;;;0.60;0.50;;;;;;;;;;7412513;19;20344;-79
2024/02/26 13:56:43;;;;;;;0.80;0.50;;;;;;;;;;7415378;19;19914;-79
2024/02/26 13:59:28;;;;;;;0.57;0.40;;;;;;;;;;7412485;19;19922;-79
2024/02/26 14:02:12;;;;;;;1.00;0.70;;;;;;;;;;7411100;19;19914;-80
2024/02/26 14:05:03;;;;;;;2.25;0.50;;;;;;;;;;7412837;19;19919;-80
2024/02/26 14:07:50;;;;;;;1.00;0.50;;;;;;;;;;7409643;19;20285;-80
2024/02/26 14:10:37;;;;;;;0.95;0.50;;;;;;;;;;7407923;19;19918;-79
2024/02/26 14:13:22;;;;;;;0.90;0.60;;;;;;;;;;7411133;19;20462;-79
2024/02/26 14:16:13;;;;;;;1.75;0.98;;;;;;;;;;7409689;19;19929;-80
2024/02/26 14:19:00;;;;;;;0.47;0.40;;;;;;;;;;7410402;19;19922;-80
2024/02/26 14:21:49;;;;;;;0.50;0.40;;;;;;;;;;7409420;19;19915;-80
2024/02/26 14:24:36;;;;;;;1.33;0.70;;;;;;;;;;7410328;19;19922;-80
2024/02/26 14:27:22;;;;;;;0.88;0.85;;;;;;;;;;7409026;19;19951;-80
2024/02/26 14:30:07;;;;;;;1.08;0.70;;;;;;;;;;7412818;19;19919;-79
2024/02/26 14:32:52;;;;;;;1.20;0.60;;;;;;;;;;7409999;19;19978;-80
2024/02/26 14:35:36;;;;;;;0.70;0.40;;;;;;;;;;7410649;19;19918;-81
2024/02/26 14:38:25;;;;;;;1.77;0.60;;;;;;;;;;7409207;19;19927;-81
2024/02/26 14:41:12;;;;;;;0.98;0.60;;;;;;;;;;7412033;19;19918;-81
2024/02/26 14:43:59;;;;;;;1.92;1.00;;;;;;;;;;7416341;19;19925;-80
2024/02/26 14:46:48;;;;;;;1.52;0.80;;;;;;;;;;7415118;19;19934;-80
2024/02/26 14:49:35;;;;;;;1.02;0.63;;;;;;;;;;7416256;19;19926;-79
2024/02/26 14:52:19;;;;;;;1.50;0.70;;;;;;;;;;7415682;19;19943;-79
2024/02/26 14:55:09;;;;;;;1.05;0.70;;;;;;;;;;7420045;19;19923;-80
2024/02/26 14:57:55;;;;;;;1.42;0.60;;;;;;;;;;7413265;19;19922;-80
2024/02/26 15:00:41;;;;;;;1.80;0.95;;;;;;;;;;7416830;19;19925;-80
2024/02/26 15:03:27;;;;;;;1.23;0.85;;;;;;;;;;7415456;19;19926;-80
2024/02/26 15:06:16;;;;;;;1.95;1.17;;;;;;;;;;7413491;19;19914;-80
2024/02/26 15:09:03;;;;;;;1.60;0.90;;;;;;;;;;7417040;19;19929;-80
2024/02/26 15:11:50;;;;;;;2.63;0.93;;;;;;;;;;7415790;19;19923;-79
2024/02/26 15:14:37;;;;;;;1.35;1.02;;;;;;;;;;7415271;19;19922;-79
2024/02/26 15:17:28;;;;;;;1.60;1.00;;;;;;;;;;7413867;19;19915;-80
2024/02/26 15:20:15;;;;;;;1.20;0.80;;;;;;;;;;7415347;19;19927;-79
2024/02/26 15:22:59;;;;;;;1.40;0.90;;;;;;;;;;7413291;19;19958;-79
2024/02/26 15:25:44;;;;;;;1.30;0.90;;;;;;;;;;7414257;19;19930;-79
2024/02/26 15:28:33;;;;;;;1.23;0.82;;;;;;;;;;7417678;19;19910;-80
2024/02/26 15:31:18;;;;;;;1.73;1.10;;;;;;;;;;7416190;19;19918;-80
2024/02/26 15:34:03;;;;;;;1.45;0.95;;;;;;;;;;7416069;19;19914;-80
2024/02/26 15:36:52;;;;;;;1.75;0.93;;;;;;;;;;7413220;19;20312;-81
2024/02/26 15:39:41;;;;;;;2.13;1.60;;;;;;;;;;7414581;19;19969;-79
2024/02/26 15:42:28;;;;;;;2.38;1.50;;;;;;;;;;7411660;19;19918;-79
2024/02/26 15:45:17;;;;;;;2.20;1.15;;;;;;;;;;7416195;19;19918;-79
2024/02/26 15:48:05;;;;;;;1.92;1.20;;;;;;;;;;7404989;19;19922;-81
2024/02/26 15:50:54;;;;;;;3.67;1.42;;;;;;;;;;7412790;19;19922;-81
2024/02/26 15:53:38;;;;;;;3.08;1.65;;;;;;;;;;7414351;19;19914;-81
2024/02/26 15:56:23;;;;;;;4.32;1.98;;;;;;;;;;7412613;19;19922;-81
2024/02/26 15:59:10;;;;;;;3.08;1.50;;;;;;;;;;7412091;19;19926;-81
2024/02/26 16:01:59;;;;;;;4.90;1.85;;;;;;;;;;7412548;19;19918;-79
2024/02/26 16:04:46;;;;;;;2.33;1.52;;;;;;;;;;7416290;19;19919;-79
2024/02/26 16:07:39;;;;;;;4.85;1.85;;;;;;;;;;7411660;19;19919;-79
2024/02/26 16:10:27;;;;;;;4.28;2.00;;;;;;;;;;7405615;19;20000;-79
2024/02/26 16:13:14;;;;;;;3.15;1.67;;;;;;;;;;7415711;19;19929;-79
2024/02/26 16:16:05;;;;;;;3.65;1.90;;;;;;;;;;7414245;19;20349;-79
2024/02/26 16:19:00;;;;;;;3.90;1.92;;;;;;;;;;7416897;19;19914;-79
2024/02/26 16:21:49;;;;;;;4.50;2.40;;;;;;;;;;7413378;19;19951;-79
2024/02/26 16:24:38;;;;;;;3.42;1.80;;;;;;;;;;7414950;19;19910;-79
2024/02/26 16:27:22;;;;;;;3.85;2.00;;;;;;;;;;7414205;19;19918;-79
2024/02/26 16:30:08;;;;;;;3.00;1.73;;;;;;;;;;7405607;19;19931;-79
2024/02/26 16:32:52;;;;;;;3.47;2.22;;;;;;;;;;7404526;19;19915;-79
2024/02/26 16:35:39;;;;;;;5.00;2.15;;;;;;;;;;7404005;19;19947;-79
2024/02/26 16:38:23;;;;;;;5.45;2.08;;;;;;;;;;7408523;19;19989;-79
2024/02/26 16:41:08;;;;;;;3.75;2.40;;;;;;;;;;7412961;19;19923;-79